Fort Severn Airport
CYER : now visible

Airfield :











YOU CAN JOIN US ON...

 
LOGIN :

Register | Disclaimer

   EN    FR    IT 

 









Legend :    VFR   Marginal VFR   IFR   Intensive IFR   Very Intensive IFR
Visi :
Ceiling :
>= 8 km
>= 3000ft
5 to 8 km
1000 to 3000 ft
1500m to 5 km
500 to 1000 ft
800 to 1500m
200 to 500 ft
< 800m
< 200 ft
Symbols :   Thunderstorms  Fog  Heavy snow  Heavy precipitations  Wind > 20 kt






- Airport Elevation : 48 ft
- IATA code : YER


CYER - Fort Severn

CURRENT METAR :
  • 220424Z AUTO 15007KT 4SM -SN OVC027 M10/M10 A2940 RMK SLP959

EXPIRED METARs :
  • 220400Z AUTO 15009KT 1 1/2SM -SN OVC014 M10/M10 A2942 RMK SLP965
  • 220300Z AUTO 13007KT 2SM -SN OVC016 M10/M11 A2945 RMK SLP976
  • 220252Z AUTO 13008KT 2 1/2SM -SN OVC016 M10/M11 A2946 RMK SLP978
  • 220200Z AUTO 14007KT 1 3/4SM -SN OVC020 M11/M11 A2949 RMK PRESFR SLP990
  • 220153Z AUTO 14008KT 2 1/4SM -SN BKN020 OVC035 M11/M12 A2950 RMK SLP993
  • 220145Z AUTO 14008KT 3SM -SN BKN024 OVC033 M11/M12 A2951 RMK SLP995
  • 220124Z AUTO 14008KT 5SM -SN FEW026 OVC031 M11/M12 A2952 RMK SLP000

Expired Forecast.



MET'MAP, your aeronautical weather chart ! - Copyright ORBIFLY December 2007 - Disclaimer

ORBIFLY MET'MAP TEAM :

Programming & Development : Alexandra Zaïnal
Concept & original design : Baudouin d'Aumeries
Assistance for programming : Marc-Olivier Méhu
Technical & hardware support : Manuel Goepfert

Contact : metmap@orbifly.com




SOURCES & CREDITS :

   NOAA       Earth
Advisory